EHJA

J6-a Sea

J6-a Sea, The Netherlands
METAR EHJA 191655Z AUTO 23024KT 9999 FEW037/// BKN043/// BKN048/// 18/17 Q1014 W///H///
Observed Flight Rules
Aug-19 @ 16:55 UTC (16 minutes ago) Visual Flight Rules
Wind Visibility Clouds
230° at 24 knots 10,000+ meters
  • Few at 3,700' AGL
  • Broken at 4,300' AGL
  • Broken at 4,800' AGL
Temperatures Readings
Current 18°C / 64°F
Dewpoint 17°C / 63°F
Humidity 94%
Altimeter 29.94" Hg
Pressure 1014 hPa
Elevation 50
METAR EHJA 191655Z AUTO 23024KT 9999 FEW037/// BKN043/// BKN048/// 18/17 Q1014 W///H///
Observed Flight Rules
Aug-19 @ 16:55 UTC
(16 minutes ago)
VFR
Wind Visibility
230° at 24 knots 10,000+ meters
Clouds
  • Few at 3,700' AGL
  • Broken at 4,300' AGL
  • Broken at 4,800' AGL
Temperature Dewpoint
18°C / 64°F 17°C / 63°F
Humidity Altimeter Pressure
94% 29.94" Hg 1014 hPa